Time;durP1;ratioP1;P1;durP2;ratioP2;P2;SDS_P1;SDS_P2;PMS_P1;PMS_P2;Temp;Humidity;BMP_temperature;BMP_pressure;BME280_temperature;BME280_humidity;BME280_pressure;Samples;Min_cycle;Max_cycle;Signal;HPM_P1;HPM_P2
2023/10/05 00:02:10;;;;;;;3.63;1.73;;;;;;;20.92;52.89;102340.59;4999507;28;20112;-36
2023/10/05 00:04:42;;;;;;;3.72;1.45;;;;;;;20.94;53.08;102344.00;5001785;28;20050;-36
2023/10/05 00:07:32;;;;;;;3.65;1.45;;;;;;;20.94;53.43;102348.53;5001493;28;20046;-36
2023/10/05 00:10:00;;;;;;;3.10;1.80;;;;;;;20.94;53.14;102352.09;5000117;28;20049;-36
2023/10/05 00:12:27;;;;;;;4.78;1.75;;;;;;;20.94;52.79;102349.41;5003500;28;20057;-36
2023/10/05 00:17:31;;;;;;;3.38;1.45;;;;;;;20.93;52.80;102342.28;5003264;28;20141;-36
2023/10/05 00:19:58;;;;;;;2.95;1.52;;;;;;;20.94;53.16;102346.72;5002485;28;20042;-36
2023/10/05 00:22:25;;;;;;;5.15;1.65;;;;;;;20.93;53.20;102350.38;5001566;28;20077;-36
2023/10/05 00:24:52;;;;;;;4.25;1.38;;;;;;;20.93;52.94;102353.06;4998672;28;20490;-36
2023/10/05 00:27:20;;;;;;;4.60;1.80;;;;;;;20.93;53.11;102352.22;5004344;28;20450;-36
2023/10/05 00:29:54;;;;;;;3.92;1.23;;;;;;;20.95;53.15;102350.25;5004538;28;20069;-36
2023/10/05 00:32:57;;;;;;;3.30;1.50;;;;;;;20.94;53.24;102345.81;5002114;28;20074;-36
2023/10/05 00:35:32;;;;;;;4.22;1.80;;;;;;;20.94;53.45;102356.59;5003862;28;20046;-36
2023/10/05 00:38:08;;;;;;;2.42;1.23;;;;;;;20.94;53.20;102348.53;4996523;28;20516;-36
2023/10/05 00:40:38;;;;;;;3.60;1.70;;;;;;;20.93;53.00;102344.13;5003529;28;20489;-36
2023/10/05 00:45:46;;;;;;;3.53;1.65;;;;;;;20.93;53.18;102342.28;4999554;28;20123;-36
2023/10/05 00:48:27;;;;;;;3.88;1.55;;;;;;;20.92;53.46;102339.75;5005422;28;20105;-36
2023/10/05 00:50:58;;;;;;;3.20;1.35;;;;;;;20.92;53.06;102347.81;5001977;28;20131;-36
2023/10/05 00:53:28;;;;;;;3.75;1.50;;;;;;;20.91;53.34;102343.44;4999631;28;20076;-36
2023/10/05 00:56:08;;;;;;;4.00;1.60;;;;;;;20.91;53.59;102348.81;4998469;28;20185;-36
2023/10/05 00:58:44;;;;;;;2.35;1.27;;;;;;;20.89;53.57;102343.53;5002969;28;20107;-36
2023/10/05 01:01:25;;;;;;;3.85;1.63;;;;;;;20.90;53.64;102352.47;5003567;28;20045;-36
2023/10/05 01:06:42;;;;;;;4.35;1.45;;;;;;;20.87;53.56;102342.84;5002372;28;20055;-36
2023/10/05 01:09:22;;;;;;;4.05;1.65;;;;;;;20.87;53.18;102350.94;5001404;28;20076;-36
2023/10/05 01:11:59;;;;;;;3.80;1.55;;;;;;;20.88;53.41;102349.09;5003390;28;20374;-36
2023/10/05 01:14:37;;;;;;;4.50;1.45;;;;;;;20.85;53.46;102339.41;5002882;28;20130;-36
2023/10/05 01:17:05;;;;;;;5.57;1.75;;;;;;;20.87;53.08;102342.00;5001366;28;20082;-36
2023/10/05 01:19:38;;;;;;;4.07;1.48;;;;;;;20.86;53.44;102334.88;5002176;28;20081;-36
2023/10/05 01:22:11;;;;;;;7.37;1.83;;;;;;;20.85;53.23;102334.03;5002881;28;20054;-36
2023/10/05 01:24:38;;;;;;;6.82;1.45;;;;;;;20.85;53.17;102335.88;5002545;28;20800;-36
2023/10/05 01:27:05;;;;;;;4.00;1.80;;;;;;;20.85;53.25;102338.56;5001931;28;20129;-36
2023/10/05 01:29:32;;;;;;;4.22;1.40;;;;;;;20.85;53.39;102339.41;5000358;28;20382;-36
2023/10/05 01:31:59;;;;;;;5.28;1.80;;;;;;;20.85;53.23;102338.56;5000035;28;20143;-37
2023/10/05 01:34:26;;;;;;;3.33;1.23;;;;;;;20.84;53.50;102337.72;5000756;28;20139;-36
2023/10/05 01:36:54;;;;;;;6.35;1.60;;;;;;;20.84;53.79;102336.88;5000796;28;20519;-36
2023/10/05 01:39:22;;;;;;;3.53;1.60;;;;;;;20.84;53.33;102336.88;4998619;28;20054;-36
2023/10/05 01:41:49;;;;;;;5.22;1.58;;;;;;;20.84;53.57;102331.47;5003168;28;20050;-36
2023/10/05 01:44:16;;;;;;;2.78;1.70;;;;;;;20.84;53.15;102335.03;5001168;28;20046;-36
2023/10/05 01:46:42;;;;;;;4.22;1.67;;;;;;;20.84;53.42;102334.19;4999270;28;20137;-36
2023/10/05 01:49:09;;;;;;;3.80;1.33;;;;;;;20.84;53.51;102332.34;5002361;28;20046;-36
2023/10/05 01:51:36;;;;;;;4.38;1.27;;;;;;;20.84;53.26;102339.56;5003303;28;20354;-36
2023/10/05 01:54:11;;;;;;;5.25;2.08;;;;;;;20.84;53.34;102334.19;5004358;28;20069;-36
2023/10/05 01:56:40;;;;;;;8.80;1.77;;;;;;;20.84;53.05;102334.19;5003760;28;20050;-36
2023/10/05 01:59:07;;;;;;;3.53;1.48;;;;;;;20.84;53.07;102331.47;5001556;28;20122;-36
2023/10/05 02:01:39;;;;;;;3.05;1.73;;;;;;;20.84;53.30;102331.47;5002085;28;20054;-36
2023/10/05 02:04:07;;;;;;;4.07;1.48;;;;;;;20.84;53.68;102335.03;4998203;28;20128;-36
2023/10/05 02:06:42;;;;;;;3.58;1.40;;;;;;;20.84;53.85;102344.97;5003339;28;20557;-36
2023/10/05 02:09:14;;;;;;;3.78;1.23;;;;;;;20.84;53.69;102343.09;4996420;28;20121;-36
2023/10/05 02:11:41;;;;;;;3.53;1.33;;;;;;;20.84;53.22;102336.88;5000701;28;20133;-36
2023/10/05 02:14:11;;;;;;;4.78;2.03;;;;;;;20.84;53.60;102335.03;5000652;28;20347;-36
2023/10/05 02:16:38;;;;;;;4.43;1.60;;;;;;;20.84;53.70;102326.09;4998526;28;20510;-36
2023/10/05 02:19:07;;;;;;;3.72;1.40;;;;;;;20.85;53.84;102338.56;5001267;28;20139;-36
2023/10/05 02:21:38;;;;;;;5.82;1.60;;;;;;;20.84;53.56;102326.94;5002120;28;20442;-37
2023/10/05 02:24:16;;;;;;;3.47;1.33;;;;;;;20.84;53.68;102328.78;4996482;28;20050;-36
2023/10/05 02:29:28;;;;;;;3.58;1.50;;;;;;;20.84;53.26;102323.41;4999744;28;20112;-36
2023/10/05 02:34:44;;;;;;;3.17;1.70;;;;;;;20.82;53.06;102315.44;5000567;28;20061;-36
2023/10/05 02:37:12;;;;;;;2.80;1.20;;;;;;;20.82;53.75;102318.13;5000413;28;20046;-36
2023/10/05 02:39:40;;;;;;;3.00;1.52;;;;;;;20.82;53.63;102310.03;4998138;28;20058;-36
2023/10/05 02:42:12;;;;;;;3.42;1.55;;;;;;;20.82;53.74;102318.13;5001092;28;20532;-36
2023/10/05 02:44:39;;;;;;;2.97;1.40;;;;;;;20.82;53.29;102314.56;4998396;28;20066;-36
2023/10/05 02:47:10;;;;;;;2.88;1.40;;;;;;;20.82;53.48;102318.13;4999692;28;20133;-36
2023/10/05 02:49:43;;;;;;;5.00;1.50;;;;;;;20.81;53.21;102311.03;5004611;28;20046;-36
2023/10/05 02:52:13;;;;;;;3.75;1.38;;;;;;;20.81;53.60;102320.97;5005530;28;20046;-36
2023/10/05 02:54:40;;;;;;;3.35;1.20;;;;;;;20.81;53.76;102320.97;5002170;28;20350;-36
2023/10/05 02:57:07;;;;;;;5.30;1.70;;;;;;;20.80;53.35;102308.50;5000038;28;20050;-36
2023/10/05 02:59:34;;;;;;;4.60;1.50;;;;;;;20.79;53.56;102323.81;4998204;28;20402;-36
2023/10/05 03:02:06;;;;;;;2.80;1.45;;;;;;;20.79;53.45;102318.41;5001241;28;20176;-36
2023/10/05 03:07:19;;;;;;;4.70;1.65;;;;;;;20.78;53.24;102321.22;5004635;28;20060;-36
2023/10/05 03:09:47;;;;;;;3.97;1.40;;;;;;;20.77;53.68;102323.06;5001245;28;20061;-36
2023/10/05 03:12:14;;;;;;;4.90;1.60;;;;;;;20.77;53.58;102320.38;5002771;28;20046;-36
2023/10/05 03:14:44;;;;;;;2.13;1.13;;;;;;;20.77;53.91;102322.22;5002337;28;20051;-37
2023/10/05 03:17:18;;;;;;;4.80;1.30;;;;;;;20.77;53.76;102319.53;5004946;28;20061;-36
2023/10/05 03:19:45;;;;;;;3.10;1.20;;;;;;;20.76;53.60;102312.44;5004239;28;20057;-36
2023/10/05 03:22:12;;;;;;;1.95;0.88;;;;;;;20.77;53.72;102314.13;5003264;28;20046;-36
2023/10/05 03:24:47;;;;;;;3.70;1.65;;;;;;;20.76;53.97;102317.84;5005947;28;20043;-36
2023/10/05 03:27:14;;;;;;;2.80;1.20;;;;;;;20.75;53.96;102316.97;5004351;28;20421;-36
2023/10/05 03:29:45;;;;;;;2.67;1.52;;;;;;;20.74;53.74;102309.88;5005761;28;20050;-36
2023/10/05 03:34:43;;;;;;;2.50;1.00;;;;;;;20.73;54.00;102308.16;5000808;28;20073;-36
2023/10/05 03:37:15;;;;;;;5.07;1.25;;;;;;;20.72;53.37;102317.25;5005645;28;20446;-36
2023/10/05 03:42:27;;;;;;;3.03;1.10;;;;;;;20.70;53.64;102324.59;5004513;28;20238;-36
2023/10/05 03:45:02;;;;;;;3.95;1.52;;;;;;;20.69;53.41;102310.28;5001342;28;20123;-36
2023/10/05 03:47:30;;;;;;;4.00;1.58;;;;;;;20.68;53.83;102322.06;4998858;28;20105;-36
2023/10/05 03:49:57;;;;;;;5.95;1.70;;;;;;;20.68;53.55;102311.28;5004833;28;20052;-36
2023/10/05 03:52:32;;;;;;;4.32;1.40;;;;;;;20.68;54.05;102308.56;5007073;28;20050;-36
2023/10/05 03:55:01;;;;;;;3.00;1.50;;;;;;;20.68;53.94;102308.56;5004392;28;20460;-36
2023/10/05 03:57:31;;;;;;;3.28;1.25;;;;;;;20.68;53.78;102307.72;5004726;28;20681;-36
2023/10/05 03:59:58;;;;;;;3.72;1.23;;;;;;;20.67;54.19;102312.28;5003349;28;20049;-36
2023/10/05 04:02:28;;;;;;;2.17;1.00;;;;;;;20.68;53.64;102315.81;5000370;28;20068;-36
2023/10/05 04:04:55;;;;;;;3.35;1.65;;;;;;;20.68;54.07;102318.50;5008974;28;20050;-36
2023/10/05 04:07:22;;;;;;;2.78;1.25;;;;;;;20.67;53.87;102317.66;5004714;28;20804;-36
2023/10/05 04:09:49;;;;;;;2.65;1.20;;;;;;;20.67;53.70;102320.34;5003716;28;20129;-37
2023/10/05 04:12:15;;;;;;;5.00;1.25;;;;;;;20.67;54.09;102308.72;5002461;28;20350;-36
2023/10/05 04:14:42;;;;;;;4.45;1.35;;;;;;;20.66;53.92;102313.25;5001546;28;20104;-36
2023/10/05 04:17:11;;;;;;;2.97;1.33;;;;;;;20.66;53.85;102313.25;5003474;28;20081;-36
2023/10/05 04:19:41;;;;;;;5.30;1.50;;;;;;;20.65;54.13;102316.94;5007517;28;20050;-36
2023/10/05 04:22:08;;;;;;;2.25;1.10;;;;;;;20.65;53.95;102318.78;5003386;28;20388;-36
2023/10/05 04:24:35;;;;;;;4.47;1.65;;;;;;;20.64;54.01;102319.75;5003855;28;20056;-36
2023/10/05 04:27:04;;;;;;;4.05;1.73;;;;;;;20.64;54.23;102320.63;5001167;28;20046;-36
2023/10/05 04:29:31;;;;;;;3.53;1.50;;;;;;;20.64;53.69;102317.06;5005368;28;20080;-36
2023/10/05 04:31:58;;;;;;;4.55;1.30;;;;;;;20.63;53.69;102326.16;5004578;28;20038;-36
2023/10/05 04:34:28;;;;;;;2.15;1.10;;;;;;;20.63;53.80;102316.22;5008224;28;20056;-36
2023/10/05 04:36:55;;;;;;;4.57;1.50;;;;;;;20.63;53.53;102323.47;5006272;28;20445;-36
2023/10/05 04:39:28;;;;;;;5.70;1.70;;;;;;;20.62;53.82;102317.22;5006098;28;20451;-36
2023/10/05 04:41:56;;;;;;;4.15;1.60;;;;;;;20.63;54.05;102318.06;5004076;28;20422;-36
2023/10/05 04:44:23;;;;;;;3.25;1.52;;;;;;;20.61;53.88;102326.25;5003300;28;20049;-36
2023/10/05 04:46:51;;;;;;;3.22;1.17;;;;;;;20.63;53.86;102318.06;5004135;28;20142;-36
2023/10/05 04:49:24;;;;;;;4.65;1.50;;;;;;;20.61;54.02;102315.50;5004634;28;20053;-36
2023/10/05 04:51:56;;;;;;;4.63;1.63;;;;;;;20.62;53.72;102305.56;5006099;28;20056;-35
2023/10/05 04:54:26;;;;;;;3.05;1.40;;;;;;;20.62;53.92;102313.66;5004267;28;20087;-36
2023/10/05 04:59:37;;;;;;;2.80;1.17;;;;;;;20.62;53.81;102319.91;5004612;28;20049;-36
2023/10/05 05:02:21;;;;;;;4.47;1.48;;;;;;;20.61;53.97;102322.72;5009833;28;20042;-36
2023/10/05 05:07:19;;;;;;;4.90;1.77;;;;;;;20.63;54.26;102327.00;5005404;28;19921;-35
2023/10/05 05:09:50;;;;;;;3.83;1.50;;;;;;;20.61;53.74;102326.25;4999626;28;20152;-36
2023/10/05 05:12:17;;;;;;;2.75;1.45;;;;;;;20.60;53.83;102329.97;4999547;28;20414;-36
2023/10/05 05:14:46;;;;;;;4.63;1.80;;;;;;;20.61;53.64;102328.97;4999581;28;20073;-36
2023/10/05 05:17:23;;;;;;;2.80;1.45;;;;;;;20.60;53.76;102331.81;5003161;28;20038;-35
2023/10/05 05:19:53;;;;;;;3.00;1.40;;;;;;;20.59;54.01;102333.66;5000854;28;20108;-36
2023/10/05 05:22:20;;;;;;;3.30;1.50;;;;;;;20.59;53.96;102333.66;5001938;28;20045;-36
2023/10/05 05:24:47;;;;;;;3.45;1.48;;;;;;;20.59;54.19;102332.78;5001970;28;20054;-36
2023/10/05 05:29:44;;;;;;;5.47;1.63;;;;;;;20.58;54.29;102342.72;5000705;28;20132;-36
2023/10/05 05:32:11;;;;;;;3.95;1.70;;;;;;;20.59;54.39;102343.56;5003794;28;20042;-36
2023/10/05 05:34:41;;;;;;;4.93;1.40;;;;;;;20.58;54.08;102348.13;5004720;28;20050;-36
2023/10/05 05:37:13;;;;;;;4.47;1.60;;;;;;;20.57;54.13;102349.06;5008296;28;20057;-36
2023/10/05 05:39:40;;;;;;;4.93;1.75;;;;;;;20.57;53.91;102350.91;4999299;28;20096;-37
2023/10/05 05:42:13;;;;;;;2.90;1.60;;;;;;;20.57;53.94;102349.06;5000195;28;20064;-36
2023/10/05 05:44:40;;;;;;;5.50;1.63;;;;;;;20.57;54.29;102346.38;5001063;28;20081;-36
2023/10/05 05:47:09;;;;;;;4.57;1.65;;;;;;;20.56;54.24;102343.84;5002214;28;20054;-36
2023/10/05 05:49:40;;;;;;;4.65;1.70;;;;;;;20.55;53.96;102352.91;5000128;28;20466;-36
2023/10/05 05:52:14;;;;;;;5.93;2.00;;;;;;;20.55;53.49;102347.53;5000433;28;20038;-36
2023/10/05 05:54:41;;;;;;;;;;;;;;;20.53;54.24;102354.88;5004317;28;20050;-36
2023/10/05 05:57:11;;;;;;;4.97;1.85;;;;;;;20.56;54.33;102362.69;5004756;28;20297;-36
2023/10/05 05:59:39;;;;;;;5.10;1.73;;;;;;;20.55;54.09;102369.06;5003513;28;20066;-36
2023/10/05 06:02:08;;;;;;;4.75;1.67;;;;;;;20.54;54.08;102353.88;5000473;28;20046;-36
2023/10/05 06:04:35;;;;;;;2.80;1.35;;;;;;;20.53;53.97;102360.25;4999878;28;20453;-36
2023/10/05 06:07:11;;;;;;;2.35;1.40;;;;;;;20.52;54.50;102367.50;5006816;28;20385;-36
2023/10/05 06:09:45;;;;;;;4.10;1.55;;;;;;;20.51;54.00;102362.25;5005719;28;20127;-36
2023/10/05 06:12:12;;;;;;;;;;;;;;;20.49;54.15;102358.81;5002762;28;20163;-36
2023/10/05 06:14:40;;;;;;;3.67;1.67;;;;;;;20.53;53.87;102357.56;5003839;28;20348;-36
2023/10/05 06:17:07;;;;;;;5.70;1.60;;;;;;;20.52;54.15;102361.25;5002060;28;20056;-36
2023/10/05 06:19:37;;;;;;;4.20;1.48;;;;;;;20.52;53.97;102362.09;5002877;28;20053;-36
2023/10/05 06:22:07;;;;;;;6.97;1.48;;;;;;;20.50;54.42;102369.44;5000530;28;20492;-36
2023/10/05 06:24:37;;;;;;;4.03;1.67;;;;;;;20.50;53.86;102374.81;5002568;28;20061;-36
2023/10/05 06:27:05;;;;;;;6.32;1.63;;;;;;;20.50;53.75;102374.81;5003343;28;20125;-36
2023/10/05 06:29:33;;;;;;;5.05;1.70;;;;;;;20.51;53.84;102376.56;5002946;28;20041;-37
2023/10/05 06:32:00;;;;;;;4.18;1.75;;;;;;;20.50;53.76;102382.91;5000875;28;20442;-37
2023/10/05 06:34:27;;;;;;;5.53;2.22;;;;;;;20.51;53.66;102390.03;5002003;28;20042;-37
2023/10/05 06:36:54;;;;;;;4.70;1.70;;;;;;;20.51;53.68;102383.78;5001331;28;20097;-37
2023/10/05 06:39:27;;;;;;;4.95;1.63;;;;;;;20.51;53.73;102387.34;5007227;28;20076;-37
2023/10/05 06:41:54;;;;;;;3.67;1.70;;;;;;;20.52;54.46;102394.41;5006198;28;20100;-37
2023/10/05 06:44:20;;;;;;;2.85;1.40;;;;;;;20.52;54.14;102389.03;5007430;28;20050;-37
2023/10/05 06:46:48;;;;;;;5.07;1.77;;;;;;;20.52;54.22;102394.41;5001687;28;20046;-37
2023/10/05 06:49:16;;;;;;;6.50;1.80;;;;;;;20.53;53.51;102406.91;5004684;28;20125;-37
2023/10/05 06:51:43;;;;;;;4.00;1.70;;;;;;;20.52;53.88;102397.13;5000057;28;20130;-37
2023/10/05 06:54:14;;;;;;;5.70;2.15;;;;;;;20.53;54.00;102397.97;5000226;28;20080;-37
2023/10/05 06:56:41;;;;;;;3.95;1.42;;;;;;;20.53;54.03;102403.34;5000334;28;20128;-37
2023/10/05 06:59:08;;;;;;;4.20;1.73;;;;;;;20.53;54.24;102406.03;5004952;28;20136;-37
2023/10/05 07:01:36;;;;;;;6.55;1.90;;;;;;;20.53;54.09;102412.28;5004978;28;20054;-36
2023/10/05 07:04:06;;;;;;;4.38;1.80;;;;;;;20.53;54.33;102420.38;5004082;28;20053;-37
2023/10/05 07:06:35;;;;;;;3.20;1.40;;;;;;;20.55;53.89;102425.63;5006960;28;20050;-36
2023/10/05 07:09:02;;;;;;;3.55;1.50;;;;;;;20.54;53.55;102432.84;5000718;28;20050;-37
2023/10/05 07:11:30;;;;;;;4.63;1.88;;;;;;;20.55;54.09;102437.25;5005786;28;20596;-36
2023/10/05 07:13:57;;;;;;;6.88;1.67;;;;;;;20.54;53.79;102438.22;5007132;28;20121;-36
2023/10/05 07:16:24;;;;;;;3.47;1.40;;;;;;;20.54;53.72;102440.91;5004486;28;20057;-36
2023/10/05 07:18:51;;;;;;;3.90;1.58;;;;;;;20.54;53.76;102440.91;5003161;28;20045;-36
2023/10/05 07:21:18;;;;;;;4.35;1.55;;;;;;;20.55;53.75;102441.81;4997738;28;20430;-36
2023/10/05 07:23:47;;;;;;;3.45;1.67;;;;;;;20.55;54.05;102450.75;5003317;28;20438;-36
2023/10/05 07:26:14;;;;;;;3.47;1.52;;;;;;;20.55;53.96;102449.88;4999328;28;20457;-36
2023/10/05 07:28:41;;;;;;;6.00;1.63;;;;;;;20.56;53.52;102448.88;5001378;28;20054;-37
2023/10/05 07:31:09;;;;;;;4.43;1.67;;;;;;;20.57;53.93;102456.81;5004524;28;20054;-37
2023/10/05 07:33:36;;;;;;;5.32;1.73;;;;;;;20.58;53.81;102460.38;5003310;28;20058;-37
2023/10/05 07:36:03;;;;;;;3.45;1.52;;;;;;;20.58;53.78;102460.38;5005850;28;20046;-37
2023/10/05 07:38:29;;;;;;;4.25;1.67;;;;;;;20.58;53.58;102452.28;5004857;28;20129;-37
2023/10/05 07:40:56;;;;;;;2.90;1.45;;;;;;;20.59;53.71;102462.97;5006518;28;20057;-37
2023/10/05 07:43:23;;;;;;;4.45;1.83;;;;;;;20.60;53.91;102456.56;5005233;28;20041;-37
2023/10/05 07:45:50;;;;;;;3.47;1.45;;;;;;;20.62;53.85;102461.81;5001473;28;20362;-37
2023/10/05 07:48:19;;;;;;;3.33;1.33;;;;;;;20.62;53.23;102464.50;5006648;28;20447;-37
2023/10/05 07:50:49;;;;;;;4.82;1.60;;;;;;;20.62;53.83;102467.22;5005898;28;20049;-37
2023/10/05 07:53:16;;;;;;;3.72;1.35;;;;;;;20.62;53.88;102462.69;5003386;28;20130;-37
2023/10/05 07:55:43;;;;;;;4.93;1.85;;;;;;;20.63;53.89;102464.41;5002278;28;20084;-37
2023/10/05 07:58:10;;;;;;;4.45;1.63;;;;;;;20.64;53.32;102471.50;4999107;28;20078;-37
2023/10/05 08:00:36;;;;;;;3.00;1.40;;;;;;;20.65;53.78;102477.72;5003126;28;20386;-37
2023/10/05 08:03:05;;;;;;;3.28;1.10;;;;;;;20.66;54.09;102472.22;5000827;28;20050;-39
2023/10/05 08:05:32;;;;;;;4.63;1.75;;;;;;;20.66;53.23;102477.63;5005453;28;20092;-37
2023/10/05 08:07:59;;;;;;;3.30;1.30;;;;;;;20.68;53.13;102480.16;5003279;28;20112;-36
2023/10/05 08:10:26;;;;;;;4.53;1.70;;;;;;;20.67;53.92;102476.63;5002886;28;20342;-36
2023/10/05 08:12:53;;;;;;;5.85;2.08;;;;;;;20.68;53.73;102478.31;5002202;28;20046;-36
2023/10/05 08:15:20;;;;;;;3.60;1.42;;;;;;;20.69;53.60;102484.56;5005182;28;20042;-36
2023/10/05 08:17:49;;;;;;;3.58;1.45;;;;;;;20.70;53.86;102489.84;5003054;28;20053;-36
2023/10/05 08:20:20;;;;;;;6.57;1.77;;;;;;;20.70;53.69;102492.53;5007640;28;20484;-36
2023/10/05 08:22:56;;;;;;;5.00;1.50;;;;;;;20.72;53.58;102489.69;5003135;28;20468;-36
2023/10/05 08:25:23;;;;;;;2.42;1.38;;;;;;;20.72;53.79;102484.31;5002884;28;20082;-36
2023/10/05 08:27:51;;;;;;;4.00;1.27;;;;;;;20.74;53.57;102489.56;5002175;28;20453;-36
2023/10/05 08:30:18;;;;;;;5.40;1.42;;;;;;;20.74;53.71;102487.72;5006176;28;20046;-36
2023/10/05 08:32:47;;;;;;;3.85;1.40;;;;;;;20.75;53.21;102488.59;5001961;28;20417;-36
2023/10/05 08:35:18;;;;;;;4.53;1.80;;;;;;;20.77;53.24;102489.31;4999596;28;20054;-36
2023/10/05 08:37:52;;;;;;;7.55;2.22;;;;;;;20.79;53.38;102492.72;5002584;28;20307;-36
2023/10/05 08:43:08;;;;;;;5.65;1.90;;;;;;;20.82;53.44;102504.06;5002760;28;20053;-36
2023/10/05 08:45:47;;;;;;;3.28;1.40;;;;;;;20.83;53.10;102504.97;5004085;28;20491;-36
2023/10/05 08:48:35;;;;;;;4.53;1.80;;;;;;;20.82;53.33;102509.47;5001883;28;20046;-36
2023/10/05 08:51:10;;;;;;;5.35;1.33;;;;;;;20.83;53.51;102508.50;4997893;28;20137;-36
2023/10/05 08:53:43;;;;;;;2.15;1.23;;;;;;;20.84;53.32;102518.28;4996728;28;20077;-36
2023/10/05 08:56:15;;;;;;;4.93;1.63;;;;;;;20.84;53.09;102518.28;5004448;28;20046;-36
2023/10/05 08:58:46;;;;;;;5.03;1.70;;;;;;;20.85;53.47;102528.06;5004726;28;20058;-36
2023/10/05 09:01:33;;;;;;;2.58;1.15;;;;;;;20.84;53.27;102537.16;5002483;28;20046;-36
2023/10/05 09:04:11;;;;;;;3.03;1.40;;;;;;;20.86;53.45;102537.88;4998368;28;20054;-36
2023/10/05 09:06:48;;;;;;;2.55;1.38;;;;;;;20.86;53.02;102550.50;4994852;28;20349;-36
2023/10/05 09:09:26;;;;;;;3.30;1.55;;;;;;;20.87;53.33;102558.47;5000300;28;20053;-36
2023/10/05 09:11:56;;;;;;;6.90;1.55;;;;;;;20.87;53.30;102566.53;4993172;28;20509;-36
2023/10/05 09:14:38;;;;;;;2.78;1.75;;;;;;;20.87;53.15;102561.16;5001555;28;20054;-36
2023/10/05 09:17:07;;;;;;;3.00;1.50;;;;;;;20.88;53.05;102564.72;5002066;28;20457;-37
2023/10/05 09:19:35;;;;;;;3.38;1.70;;;;;;;20.88;53.12;102570.09;5001065;28;20057;-37
2023/10/05 09:22:10;;;;;;;2.47;1.20;;;;;;;20.89;53.14;102563.72;5000867;28;20065;-37
2023/10/05 09:24:43;;;;;;;5.22;1.50;;;;;;;20.89;53.01;102559.16;5002822;28;20131;-37
2023/10/05 09:27:12;;;;;;;2.88;1.25;;;;;;;20.90;53.09;102570.81;4998799;28;20041;-37
2023/10/05 09:29:41;;;;;;;3.55;1.63;;;;;;;20.90;53.33;102562.72;5002679;28;20045;-37
2023/10/05 09:32:25;;;;;;;5.15;1.67;;;;;;;20.88;53.50;102564.72;4999496;28;20138;-37
2023/10/05 09:34:56;;;;;;;3.75;1.35;;;;;;;20.90;53.30;102562.72;5002714;28;20046;-37
2023/10/05 09:37:27;;;;;;;4.50;1.58;;;;;;;20.90;53.28;102558.22;4999674;28;20044;-37
2023/10/05 09:39:59;;;;;;;6.13;1.90;;;;;;;20.91;53.19;102559.06;4998231;28;20045;-37
2023/10/05 09:42:28;;;;;;;4.93;1.42;;;;;;;20.92;53.64;102561.63;5000603;28;20050;-37
2023/10/05 09:45:06;;;;;;;4.22;1.90;;;;;;;20.92;53.59;102560.75;4999978;28;20081;-37
2023/10/05 09:47:35;;;;;;;5.15;1.80;;;;;;;20.93;53.58;102559.78;4996124;28;20129;-37
2023/10/05 09:50:10;;;;;;;4.22;1.73;;;;;;;20.93;53.08;102567.84;5007566;28;20077;-37
2023/10/05 09:52:38;;;;;;;5.20;2.08;;;;;;;20.93;53.41;102574.09;5003040;28;20062;-37
2023/10/05 09:55:06;;;;;;;4.22;1.65;;;;;;;20.94;53.54;102570.44;4998204;28;20050;-37
2023/10/05 09:57:41;;;;;;;4.60;1.23;;;;;;;20.95;53.73;102572.13;4992952;28;20042;-37
2023/10/05 10:00:30;;;;;;;4.28;1.67;;;;;;;20.97;53.38;102572.00;4995915;28;20060;-37
2023/10/05 10:02:59;;;;;;;7.07;1.70;;;;;;;20.98;53.31;102568.31;5002920;28;20065;-37
2023/10/05 10:05:35;;;;;;;2.83;1.25;;;;;;;20.99;53.47;102575.44;5001976;28;20407;-37
2023/10/05 10:08:23;;;;;;;4.15;1.48;;;;;;;20.99;53.51;102570.03;5001198;28;20046;-36
2023/10/05 10:11:08;;;;;;;4.65;1.60;;;;;;;21.01;53.24;102575.28;4990249;28;20425;-37
2023/10/05 10:13:39;;;;;;;4.18;1.73;;;;;;;21.03;53.28;102566.09;4992316;28;20041;-37
2023/10/05 10:16:23;;;;;;;3.63;1.30;;;;;;;21.04;53.25;102583.97;4993120;28;20112;-37
2023/10/05 10:19:19;;;;;;;3.63;1.45;;;;;;;21.06;53.61;102573.91;4992625;28;20065;-36
2023/10/05 10:22:26;;;;;;;4.45;1.40;;;;;;;21.09;53.28;102564.69;4990767;28;20140;-36
2023/10/05 10:24:40;;;;;;;4.10;1.35;;;;;;;21.10;53.60;102574.50;4990626;28;20468;-36
2023/10/05 10:27:15;;;;;;;4.88;1.83;;;;;;;21.12;53.60;102576.09;4993734;28;20414;-36
2023/10/05 10:29:45;;;;;;;4.45;1.23;;;;;;;21.13;53.34;102574.25;4994832;28;20454;-37
2023/10/05 10:32:20;;;;;;;4.13;1.65;;;;;;;21.15;53.33;102573.13;4998241;28;20050;-36
2023/10/05 10:34:52;;;;;;;5.13;1.60;;;;;;;21.16;53.19;102569.44;4993216;28;20050;-36
2023/10/05 10:37:44;;;;;;;4.72;1.73;;;;;;;21.17;53.06;102560.34;4992078;28;20049;-36
2023/10/05 10:43:06;;;;;;;4.05;2.03;;;;;;;21.25;53.36;102566.94;4992938;28;21213;-36
2023/10/05 10:45:41;;;;;;;4.53;1.83;;;;;;;21.28;53.58;102566.66;4998981;28;20045;-36
2023/10/05 10:48:20;;;;;;;4.10;1.50;;;;;;;21.30;53.70;102561.97;4996524;28;20048;-37
2023/10/05 10:50:52;;;;;;;5.18;1.95;;;;;;;21.32;53.49;102562.72;4998434;28;20135;-36
2023/10/05 10:53:25;;;;;;;5.68;1.80;;;;;;;21.34;53.51;102560.75;5004251;28;20121;-37
2023/10/05 10:56:04;;;;;;;7.35;1.75;;;;;;;21.35;53.80;102563.34;4996561;28;20066;-36
2023/10/05 10:58:33;;;;;;;4.95;1.95;;;;;;;21.38;53.62;102570.28;4997121;28;20054;-37
2023/10/05 11:01:44;;;;;;;4.15;1.77;;;;;;;21.39;53.60;102574.72;4997026;28;20073;-36
2023/10/05 11:04:00;;;;;;;3.40;2.00;;;;;;;21.41;53.71;102570.03;4993759;28;20057;-37
2023/10/05 11:06:28;;;;;;;7.00;2.03;;;;;;;21.42;53.62;102579.81;4998614;28;20509;-36
2023/10/05 11:08:59;;;;;;;6.22;1.85;;;;;;;21.44;53.50;102580.56;4998749;28;20407;-37
2023/10/05 11:11:26;;;;;;;5.80;2.08;;;;;;;21.45;53.48;102576.88;4993999;28;20057;-36
2023/10/05 11:13:56;;;;;;;4.65;1.83;;;;;;;21.47;53.70;102577.59;5000281;28;20085;-36
2023/10/05 11:16:59;;;;;;;4.25;1.55;;;;;;;21.48;53.55;102579.31;5001183;28;20446;-36
2023/10/05 11:19:24;;;;;;;6.32;2.17;;;;;;;21.51;53.70;102579.03;4996962;28;20058;-36
2023/10/05 11:22:04;;;;;;;4.70;1.80;;;;;;;21.52;53.86;102575.34;4996629;28;20065;-37
2023/10/05 11:24:36;;;;;;;5.32;2.40;;;;;;;21.53;53.76;102562.72;4995889;28;20637;-36
2023/10/05 11:29:33;;;;;;;4.60;1.90;;;;;;;21.57;53.76;102561.44;5001605;28;20397;-37
2023/10/05 11:32:12;;;;;;;3.50;1.50;;;;;;;21.57;53.99;102559.59;4999657;28;20046;-36
2023/10/05 11:35:13;;;;;;;4.50;1.70;;;;;;;21.57;53.61;102562.31;4998364;28;20050;-36
2023/10/05 11:37:58;;;;;;;4.43;1.95;;;;;;;21.59;53.57;102565.72;5000989;28;20168;-37
2023/10/05 11:40:41;;;;;;;4.35;1.50;;;;;;;21.59;53.72;102565.72;5003220;28;20549;-37
2023/10/05 11:43:13;;;;;;;4.40;2.13;;;;;;;21.60;53.85;102563.88;4997625;28;20085;-36
2023/10/05 11:46:24;;;;;;;3.70;1.83;;;;;;;21.59;53.76;102563.03;5005339;28;20062;-36
2023/10/05 11:48:54;;;;;;;3.53;1.73;;;;;;;21.61;53.78;102563.75;5000980;28;20050;-36
2023/10/05 11:51:42;;;;;;;4.45;1.70;;;;;;;21.62;53.66;102570.84;4999320;28;20050;-36
2023/10/05 11:54:10;;;;;;;7.90;2.28;;;;;;;21.63;53.90;102569.03;4998039;28;20050;-36
2023/10/05 11:56:38;;;;;;;4.35;1.77;;;;;;;21.63;53.90;102561.78;4995802;28;20054;-37
2023/10/05 11:59:07;;;;;;;5.00;1.77;;;;;;;21.64;53.76;102568.03;4999434;28;20975;-36
2023/10/05 12:01:34;;;;;;;5.85;2.10;;;;;;;21.64;53.69;102571.56;5001558;28;20049;-36
2023/10/05 12:04:04;;;;;;;3.47;1.70;;;;;;;21.65;53.72;102575.97;5002597;28;20145;-36
2023/10/05 12:06:31;;;;;;;6.05;2.20;;;;;;;21.65;53.63;102575.13;4999619;28;20089;-37
2023/10/05 12:09:07;;;;;;;3.00;1.63;;;;;;;21.66;53.70;102574.13;4998255;28;20073;-37
2023/10/05 12:11:35;;;;;;;4.53;1.75;;;;;;;21.66;53.63;102569.56;5000212;28;20050;-37
2023/10/05 12:14:04;;;;;;;3.10;1.30;;;;;;;21.67;53.50;102570.47;5001238;28;20073;-37
2023/10/05 12:16:38;;;;;;;4.32;1.58;;;;;;;21.67;53.51;102571.31;4998770;28;20054;-37
2023/10/05 12:19:14;;;;;;;5.63;2.05;;;;;;;21.67;53.90;102574.00;5002166;28;20112;-37
2023/10/05 12:21:43;;;;;;;3.72;1.55;;;;;;;21.68;54.05;102574.84;4996031;28;20135;-37
2023/10/05 12:24:12;;;;;;;5.85;1.80;;;;;;;21.68;53.67;102569.47;5000635;28;20039;-37